Time;durP1;ratioP1;P1;durP2;ratioP2;P2;SDS_P1;SDS_P2;PMS_P1;PMS_P2;Temp;Humidity;BMP_temperature;BMP_pressure;BME280_temperature;BME280_humidity;BME280_pressure;Samples;Min_cycle;Max_cycle;Signal;HPM_P1;HPM_P2
2021/01/28 00:02:18;;;;;;;0.20;0.20;;;4.50;99.90;;;;;;5049279;28;20651;-82
2021/01/28 00:04:44;;;;;;;0.20;0.20;;;4.50;99.90;;;;;;5037336;28;20274;-82
2021/01/28 00:07:09;;;;;;;0.27;0.27;;;4.50;99.90;;;;;;5025053;28;20203;-82
2021/01/28 00:09:35;;;;;;;0.37;0.37;;;4.50;99.90;;;;;;5035474;28;20219;-83
2021/01/28 00:12:00;;;;;;;0.40;0.40;;;4.40;99.90;;;;;;5049190;28;20641;-82
2021/01/28 00:14:26;;;;;;;0.10;0.10;;;4.40;99.90;;;;;;5039399;28;20208;-81
2021/01/28 00:16:51;;;;;;;0.10;0.10;;;4.40;99.90;;;;;;5045159;28;20223;-83
2021/01/28 00:19:17;;;;;;;0.10;0.10;;;4.40;99.90;;;;;;5029905;28;20199;-82
2021/01/28 00:21:43;;;;;;;0.10;0.10;;;4.50;99.90;;;;;;5027986;28;20699;-82
2021/01/28 00:24:09;;;;;;;0.40;0.40;;;4.50;99.90;;;;;;5028916;28;20187;-83
2021/01/28 00:26:34;;;;;;;0.43;0.43;;;4.40;99.90;;;;;;5029299;28;20191;-82
2021/01/28 00:29:00;;;;;;;0.10;0.10;;;4.30;99.90;;;;;;5050334;28;20279;-81
2021/01/28 00:31:26;;;;;;;0.30;0.30;;;4.20;99.90;;;;;;5047677;28;20652;-82
2021/01/28 00:33:51;;;;;;;0.30;0.30;;;4.30;99.90;;;;;;5028962;28;20296;-82
2021/01/28 00:36:17;;;;;;;0.20;0.20;;;4.30;99.90;;;;;;5022547;28;20191;-82
2021/01/28 00:38:42;;;;;;;0.10;0.10;;;4.30;99.90;;;;;;5033386;28;20185;-83
2021/01/28 00:41:09;;;;;;;0.63;0.60;;;4.40;99.90;;;;;;5042728;28;20285;-81
2021/01/28 00:43:35;;;;;;;0.20;0.20;;;4.40;99.90;;;;;;5032198;28;20211;-81
2021/01/28 00:46:02;;;;;;;0.60;0.60;;;4.30;99.90;;;;;;5029091;28;20221;-82
2021/01/28 00:48:27;;;;;;;0.10;0.10;;;4.40;99.90;;;;;;5028625;28;20209;-82
2021/01/28 00:50:55;;;;;;;0.73;0.73;;;4.50;99.90;;;;;;5028707;28;20693;-81
2021/01/28 00:53:21;;;;;;;0.63;0.40;;;4.50;99.90;;;;;;5051086;28;20198;-82
2021/01/28 00:55:46;;;;;;;0.33;0.10;;;4.50;99.90;;;;;;5033279;28;20185;-83
2021/01/28 00:58:17;;;;;;;0.40;0.37;;;4.50;99.90;;;;;;5035374;28;20203;-83
2021/01/28 01:00:44;;;;;;;0.50;0.50;;;4.60;99.90;;;;;;5046192;28;20212;-83
2021/01/28 01:03:12;;;;;;;0.20;0.20;;;4.60;99.90;;;;;;5053881;28;20207;-83
2021/01/28 01:05:39;;;;;;;0.27;0.27;;;4.70;99.90;;;;;;5039443;28;20174;-83
2021/01/28 01:08:07;;;;;;;0.47;0.40;;;4.80;99.90;;;;;;5052616;28;20189;-81
2021/01/28 01:10:33;;;;;;;0.40;0.40;;;4.80;99.90;;;;;;5034582;28;20202;-83
2021/01/28 01:12:59;;;;;;;0.73;0.73;;;4.90;99.90;;;;;;5027196;28;20193;-82
2021/01/28 01:15:24;;;;;;;0.73;0.73;;;4.80;99.90;;;;;;5030799;28;20714;-83
2021/01/28 01:17:50;;;;;;;0.20;0.20;;;4.80;99.90;;;;;;5032181;28;20212;-83
2021/01/28 01:20:19;;;;;;;0.40;0.40;;;4.80;99.90;;;;;;5031114;28;20232;-83
2021/01/28 01:22:45;;;;;;;0.30;0.30;;;4.80;99.90;;;;;;5033243;28;20555;-83
2021/01/28 01:25:12;;;;;;;0.57;0.50;;;4.90;99.90;;;;;;5034116;28;20190;-81
2021/01/28 01:27:37;;;;;;;0.30;0.30;;;4.90;99.90;;;;;;5058774;28;20617;-82
2021/01/28 01:30:04;;;;;;;0.40;0.40;;;4.80;99.90;;;;;;5030993;28;20240;-85
2021/01/28 01:32:30;;;;;;;0.63;0.40;;;4.80;99.90;;;;;;5031403;28;20216;-82
2021/01/28 01:34:56;;;;;;;0.30;0.30;;;4.80;99.90;;;;;;5031906;28;20919;-81
2021/01/28 01:37:21;;;;;;;0.57;0.37;;;4.90;99.90;;;;;;5034772;28;20252;-82
2021/01/28 01:39:47;;;;;;;1.03;0.40;;;4.90;99.90;;;;;;5032817;28;20207;-80
2021/01/28 01:42:12;;;;;;;0.20;0.20;;;4.90;99.90;;;;;;5031627;28;20181;-82
2021/01/28 01:44:38;;;;;;;0.37;0.27;;;4.70;99.90;;;;;;5031557;28;20197;-82
2021/01/28 01:47:29;;;;;;;0.20;0.20;;;4.70;99.90;;;;;;5031650;28;20188;-82
2021/01/28 01:49:55;;;;;;;0.30;0.20;;;4.80;99.90;;;;;;5030458;28;20788;-82
2021/01/28 01:52:27;;;;;;;0.10;0.10;;;4.80;99.90;;;;;;5026450;28;20203;-81
2021/01/28 01:54:53;;;;;;;0.10;0.10;;;4.80;99.90;;;;;;5031031;28;20198;-82
2021/01/28 01:57:29;;;;;;;0.20;0.20;;;4.80;99.90;;;;;;5031561;28;20613;-82
2021/01/28 02:00:08;;;;;;;0.10;0.10;;;4.80;99.90;;;;;;5034586;28;20254;-82
2021/01/28 02:02:37;;;;;;;0.30;0.30;;;4.80;99.90;;;;;;5045655;28;20209;-82
2021/01/28 02:05:14;;;;;;;0.40;0.40;;;4.50;99.90;;;;;;5038831;28;20204;-82
2021/01/28 02:07:40;;;;;;;0.53;0.37;;;4.60;99.90;;;;;;5049277;28;20213;-82
2021/01/28 02:10:09;;;;;;;0.60;0.60;;;4.70;99.90;;;;;;5040391;28;20212;-81
2021/01/28 02:12:35;;;;;;;0.63;0.50;;;4.80;99.90;;;;;;5033206;28;20182;-80
2021/01/28 02:15:01;;;;;;;0.67;0.37;;;4.80;99.90;;;;;;5030763;28;20259;-83
2021/01/28 02:17:27;;;;;;;0.83;0.83;;;4.80;99.90;;;;;;5039186;28;20259;-82
2021/01/28 02:20:18;;;;;;;0.20;0.20;;;4.90;99.90;;;;;;5028178;28;20221;-83
2021/01/28 02:22:58;;;;;;;0.40;0.23;;;5.00;99.90;;;;;;5035066;28;20661;-83
2021/01/28 02:25:28;;;;;;;0.60;0.60;;;5.10;99.90;;;;;;5033061;28;20261;-83
2021/01/28 02:28:11;;;;;;;0.20;0.20;;;5.00;99.90;;;;;;5034571;28;20206;-83
2021/01/28 02:30:39;;;;;;;0.10;0.10;;;5.00;99.90;;;;;;5014859;28;20744;-83
2021/01/28 02:33:05;;;;;;;0.37;0.37;;;5.00;99.90;;;;;;5024479;28;20193;-83
2021/01/28 02:35:33;;;;;;;0.40;0.30;;;5.10;99.90;;;;;;5035535;28;20541;-83
2021/01/28 02:38:02;;;;;;;0.77;0.63;;;5.10;99.90;;;;;;5045395;28;20257;-83
2021/01/28 02:40:30;;;;;;;0.20;0.20;;;5.10;99.90;;;;;;5031174;28;20201;-82
2021/01/28 02:42:56;;;;;;;0.37;0.37;;;5.10;99.90;;;;;;5030235;28;20186;-83
2021/01/28 02:45:28;;;;;;;0.73;0.60;;;5.10;99.90;;;;;;5028277;28;20388;-83
2021/01/28 02:47:57;;;;;;;1.50;0.30;;;5.10;99.90;;;;;;5037384;28;20604;-83
2021/01/28 02:50:23;;;;;;;0.27;0.27;;;5.10;99.90;;;;;;5030738;28;20348;-83
2021/01/28 02:52:58;;;;;;;0.10;0.10;;;5.10;99.90;;;;;;5047562;28;20709;-82
2021/01/28 02:55:25;;;;;;;0.30;0.30;;;5.10;99.90;;;;;;5034351;28;20234;-83
2021/01/28 02:57:50;;;;;;;0.33;0.30;;;5.10;99.90;;;;;;5037299;28;20214;-83
2021/01/28 03:00:25;;;;;;;0.53;0.40;;;5.10;99.90;;;;;;5030531;28;20203;-82
2021/01/28 03:02:51;;;;;;;0.40;0.40;;;5.10;99.90;;;;;;5048659;28;20184;-83
2021/01/28 03:05:17;;;;;;;0.10;0.10;;;5.00;99.90;;;;;;5046692;28;20666;-82
2021/01/28 03:07:43;;;;;;;4.17;0.50;;;4.90;99.90;;;;;;5031520;28;20196;-82
2021/01/28 03:10:10;;;;;;;0.63;0.30;;;4.80;99.90;;;;;;5040997;28;20213;-83
2021/01/28 03:12:35;;;;;;;0.10;0.10;;;4.90;99.90;;;;;;5029846;28;20201;-82
2021/01/28 03:15:01;;;;;;;0.70;0.40;;;4.80;99.90;;;;;;5028396;28;20217;-83
2021/01/28 03:17:26;;;;;;;0.53;0.50;;;4.80;99.90;;;;;;5035533;28;20221;-83
2021/01/28 03:19:52;;;;;;;0.30;0.20;;;4.60;99.90;;;;;;5042057;28;20215;-83
2021/01/28 03:22:17;;;;;;;0.10;0.10;;;4.50;99.90;;;;;;5031741;28;20189;-83
2021/01/28 03:24:43;;;;;;;0.30;0.30;;;4.40;99.90;;;;;;5029872;28;20199;-82
2021/01/28 03:27:09;;;;;;;0.30;0.30;;;4.40;99.90;;;;;;5032324;28;20642;-83
2021/01/28 03:29:35;;;;;;;0.13;0.13;;;4.20;99.90;;;;;;5028999;28;20247;-83
2021/01/28 03:32:00;;;;;;;0.30;0.30;;;4.10;99.90;;;;;;5034303;28;20218;-83
2021/01/28 03:34:26;;;;;;;0.37;0.37;;;4.20;99.90;;;;;;5028864;28;20596;-81
2021/01/28 03:36:52;;;;;;;3.20;0.40;;;4.20;99.90;;;;;;5029620;28;20584;-83
2021/01/28 03:39:18;;;;;;;0.10;0.10;;;4.40;99.90;;;;;;5032733;28;20619;-83
2021/01/28 03:41:43;;;;;;;1.30;1.20;;;4.40;99.90;;;;;;5028806;28;20287;-82
2021/01/28 03:44:09;;;;;;;1.03;0.20;;;4.40;99.90;;;;;;5030758;28;20389;-83
2021/01/28 03:46:34;;;;;;;0.37;0.37;;;4.50;99.90;;;;;;5047771;28;20647;-82
2021/01/28 03:49:00;;;;;;;0.40;0.40;;;4.50;99.90;;;;;;5045033;28;20204;-82
2021/01/28 03:51:25;;;;;;;0.73;0.37;;;4.60;99.90;;;;;;5030107;28;20196;-83
2021/01/28 03:53:51;;;;;;;5.33;0.50;;;4.70;99.90;;;;;;5028849;28;20198;-83
2021/01/28 03:56:17;;;;;;;0.10;0.10;;;4.80;99.90;;;;;;5039402;28;20246;-82
2021/01/28 03:58:42;;;;;;;0.30;0.30;;;4.90;99.90;;;;;;5029288;28;20191;-83
2021/01/28 04:01:09;;;;;;;0.00;0.00;;;5.00;99.90;;;;;;5045931;28;20807;-83
2021/01/28 04:03:34;;;;;;;0.10;0.10;;;5.00;99.90;;;;;;5038900;28;20562;-81
2021/01/28 04:06:00;;;;;;;0.40;0.40;;;5.00;99.90;;;;;;5030188;28;20191;-83
2021/01/28 04:08:26;;;;;;;0.50;0.50;;;5.00;99.90;;;;;;5029718;28;20211;-83
2021/01/28 04:10:51;;;;;;;0.30;0.30;;;5.10;99.90;;;;;;5026197;28;20221;-83
2021/01/28 04:13:17;;;;;;;0.33;0.33;;;5.10;99.90;;;;;;5029304;28;20619;-84
2021/01/28 04:15:42;;;;;;;0.20;0.20;;;5.10;99.90;;;;;;5033843;28;20190;-83
2021/01/28 04:18:08;;;;;;;0.10;0.10;;;5.10;99.90;;;;;;5033485;28;20256;-84
2021/01/28 04:20:37;;;;;;;0.20;0.20;;;5.00;99.90;;;;;;5028002;28;20206;-82
2021/01/28 04:23:04;;;;;;;0.20;0.20;;;5.00;99.90;;;;;;5029139;28;20671;-83
2021/01/28 04:25:30;;;;;;;0.20;0.20;;;5.00;99.90;;;;;;5034250;28;20181;-83
2021/01/28 04:27:56;;;;;;;0.43;0.43;;;5.00;99.90;;;;;;5045752;28;20688;-83
2021/01/28 04:30:30;;;;;;;0.80;0.57;;;5.10;99.90;;;;;;5033167;28;20200;-82
2021/01/28 04:32:57;;;;;;;0.40;0.40;;;5.00;99.90;;;;;;5034024;28;20249;-83
2021/01/28 04:35:22;;;;;;;0.20;0.20;;;5.10;99.90;;;;;;5052034;28;20257;-83
2021/01/28 04:37:49;;;;;;;0.20;0.20;;;5.00;99.90;;;;;;5043351;28;20208;-83
2021/01/28 04:40:26;;;;;;;0.23;0.23;;;5.00;99.90;;;;;;5035461;28;20196;-83
2021/01/28 04:42:53;;;;;;;0.40;0.37;;;5.10;99.90;;;;;;5033798;28;20192;-83
2021/01/28 04:45:22;;;;;;;0.10;0.10;;;5.10;99.90;;;;;;5052950;28;20185;-84
2021/01/28 04:48:04;;;;;;;0.37;0.37;;;5.20;99.90;;;;;;5049720;28;20194;-84
2021/01/28 04:50:35;;;;;;;0.43;0.43;;;5.20;99.90;;;;;;5041935;28;20217;-81
2021/01/28 04:53:07;;;;;;;0.83;0.53;;;5.20;99.90;;;;;;5028322;28;20313;-81
2021/01/28 04:55:44;;;;;;;0.30;0.30;;;5.20;99.90;;;;;;5037144;28;20178;-81
2021/01/28 04:58:10;;;;;;;4.73;0.50;;;5.20;99.90;;;;;;5018339;28;20210;-82
2021/01/28 05:00:36;;;;;;;0.20;0.20;;;5.20;99.90;;;;;;5022725;28;21077;-81
2021/01/28 05:03:18;;;;;;;0.10;0.10;;;5.20;99.90;;;;;;5029375;28;20189;-81
2021/01/28 05:05:44;;;;;;;0.10;0.10;;;5.20;99.90;;;;;;5036293;28;20193;-81
2021/01/28 05:08:10;;;;;;;0.13;0.13;;;5.20;99.90;;;;;;5024198;28;20196;-82
2021/01/28 05:10:46;;;;;;;0.30;0.30;;;5.30;99.90;;;;;;5029574;28;20302;-81
2021/01/28 05:13:24;;;;;;;0.10;0.10;;;5.20;99.90;;;;;;5027702;28;20185;-82
2021/01/28 05:15:50;;;;;;;0.23;0.23;;;5.30;99.90;;;;;;5017089;28;20205;-81
2021/01/28 05:18:21;;;;;;;0.10;0.10;;;5.30;99.90;;;;;;5034381;28;20202;-81
2021/01/28 05:20:47;;;;;;;0.10;0.10;;;5.30;99.90;;;;;;5029733;28;20209;-81
2021/01/28 05:23:31;;;;;;;0.33;0.33;;;5.30;99.90;;;;;;5026889;28;20183;-82
2021/01/28 05:25:57;;;;;;;0.33;0.33;;;5.20;99.90;;;;;;5040467;28;20859;-82
2021/01/28 05:28:28;;;;;;;0.20;0.20;;;5.20;99.90;;;;;;5023144;28;20193;-81
2021/01/28 05:30:55;;;;;;;0.20;0.20;;;5.30;99.90;;;;;;5024218;28;20214;-80
2021/01/28 05:33:32;;;;;;;0.53;0.43;;;5.30;99.90;;;;;;5030526;28;20310;-82
2021/01/28 05:36:03;;;;;;;0.40;0.40;;;5.20;99.90;;;;;;5030930;28;20190;-80
2021/01/28 05:38:37;;;;;;;0.30;0.30;;;5.20;99.90;;;;;;5025454;28;20282;-82
2021/01/28 05:41:04;;;;;;;0.83;0.27;;;5.20;99.90;;;;;;5023396;28;20816;-81
2021/01/28 05:43:40;;;;;;;0.00;0.00;;;5.10;99.90;;;;;;5025207;28;20202;-81
2021/01/28 05:46:13;;;;;;;0.10;0.10;;;5.10;99.90;;;;;;5031170;28;20189;-81
2021/01/28 05:48:39;;;;;;;0.30;0.30;;;5.10;99.90;;;;;;5034021;28;20181;-81
2021/01/28 05:51:19;;;;;;;0.20;0.20;;;5.20;99.90;;;;;;5035245;28;20197;-81
2021/01/28 05:54:07;;;;;;;0.63;0.60;;;5.10;99.90;;;;;;5023210;28;20186;-82
2021/01/28 05:56:49;;;;;;;0.20;0.20;;;5.10;99.90;;;;;;5019191;28;20194;-81
2021/01/28 05:59:22;;;;;;;0.43;0.37;;;5.00;99.90;;;;;;5027902;28;20227;-81
2021/01/28 06:02:00;;;;;;;0.20;0.20;;;5.00;99.90;;;;;;5031331;28;20317;-81
2021/01/28 06:04:31;;;;;;;0.53;0.53;;;5.00;99.90;;;;;;5031198;28;20268;-81
2021/01/28 06:07:19;;;;;;;1.40;0.40;;;5.00;99.90;;;;;;5027401;28;20188;-82
2021/01/28 06:10:11;;;;;;;0.47;0.30;;;5.00;99.90;;;;;;5029358;28;20219;-81
2021/01/28 06:12:43;;;;;;;0.10;0.10;;;4.90;99.90;;;;;;5047073;28;20196;-81
2021/01/28 06:15:20;;;;;;;0.27;0.27;;;4.80;99.90;;;;;;5029933;28;20207;-84
2021/01/28 06:18:12;;;;;;;1.97;1.03;;;4.90;99.90;;;;;;5026162;28;20193;-84
2021/01/28 06:20:55;;;;;;;0.67;0.50;;;4.90;99.90;;;;;;5031448;28;20207;-82
2021/01/28 06:23:53;;;;;;;0.47;0.40;;;4.80;99.90;;;;;;5034082;28;20185;-83
2021/01/28 06:26:36;;;;;;;0.10;0.10;;;4.80;99.90;;;;;;5035237;28;20205;-82
2021/01/28 06:29:20;;;;;;;0.30;0.30;;;4.90;99.90;;;;;;5043832;28;20267;-82
2021/01/28 06:32:23;;;;;;;0.40;0.40;;;4.90;99.90;;;;;;5032788;28;20176;-82
2021/01/28 06:35:18;;;;;;;0.20;0.20;;;5.00;99.90;;;;;;5032160;28;20185;-81
2021/01/28 06:38:01;;;;;;;0.10;0.10;;;5.00;99.90;;;;;;5050104;28;20221;-82
2021/01/28 06:40:31;;;;;;;1.80;1.70;;;5.00;99.90;;;;;;5030633;28;20201;-82
2021/01/28 06:43:15;;;;;;;0.40;0.40;;;5.00;99.90;;;;;;5031510;28;20653;-81
2021/01/28 06:46:00;;;;;;;0.23;0.23;;;5.00;99.90;;;;;;5035155;28;20196;-81
2021/01/28 06:48:39;;;;;;;0.27;0.27;;;4.90;99.90;;;;;;5030342;28;20189;-84
2021/01/28 06:51:29;;;;;;;0.03;0.03;;;4.90;99.90;;;;;;5021150;28;20202;-84
2021/01/28 06:54:19;;;;;;;0.33;0.33;;;4.80;99.90;;;;;;5028820;28;20189;-83
2021/01/28 06:57:11;;;;;;;0.30;0.30;;;4.70;99.90;;;;;;5034458;28;20200;-82
2021/01/28 06:59:52;;;;;;;0.27;0.27;;;4.80;99.90;;;;;;5034167;28;20573;-82
2021/01/28 07:02:38;;;;;;;0.30;0.30;;;4.80;99.90;;;;;;5033048;28;20182;-84
2021/01/28 07:05:11;;;;;;;0.20;0.20;;;4.80;99.90;;;;;;5033206;28;20192;-83
2021/01/28 07:07:49;;;;;;;0.17;0.17;;;4.80;99.90;;;;;;5039135;28;20193;-81
2021/01/28 07:10:36;;;;;;;0.17;0.17;;;4.90;99.90;;;;;;5025419;28;20285;-81
2021/01/28 07:13:02;;;;;;;0.13;0.13;;;4.80;99.90;;;;;;5038334;28;20610;-82
2021/01/28 07:15:28;;;;;;;0.20;0.20;;;4.70;99.90;;;;;;5029165;28;20201;-82
2021/01/28 07:17:59;;;;;;;0.57;0.33;;;4.80;99.90;;;;;;5019170;28;20712;-81
2021/01/28 07:20:31;;;;;;;0.20;0.20;;;4.90;99.90;;;;;;5027686;28;20276;-82
2021/01/28 07:23:22;;;;;;;0.27;0.13;;;5.00;99.90;;;;;;5029448;28;20192;-82
2021/01/28 07:25:49;;;;;;;1.70;0.40;;;5.00;99.90;;;;;;5024352;28;20178;-82
2021/01/28 07:28:17;;;;;;;0.50;0.27;;;5.10;99.90;;;;;;5029544;28;20192;-82
2021/01/28 07:30:44;;;;;;;0.20;0.20;;;5.10;99.90;;;;;;5026104;28;20210;-90
2021/01/28 07:33:25;;;;;;;0.40;0.40;;;5.20;99.90;;;;;;5044680;28;20241;-84
2021/01/28 07:35:54;;;;;;;0.20;0.20;;;5.10;99.90;;;;;;5045419;28;20556;-80
2021/01/28 07:38:32;;;;;;;0.47;0.47;;;5.00;99.90;;;;;;5040457;28;20204;-82
2021/01/28 07:41:05;;;;;;;0.93;0.43;;;5.00;99.90;;;;;;5040101;28;20567;-80
2021/01/28 07:43:33;;;;;;;0.17;0.17;;;5.10;99.90;;;;;;5024640;28;20844;-82
2021/01/28 07:46:19;;;;;;;0.10;0.07;;;5.20;99.90;;;;;;5028863;28;20189;-81
2021/01/28 07:48:47;;;;;;;0.97;0.47;;;5.10;99.90;;;;;;5032541;28;20188;-83
2021/01/28 07:51:34;;;;;;;0.10;0.10;;;5.20;99.90;;;;;;5040931;28;20282;-82
2021/01/28 07:54:01;;;;;;;0.33;0.33;;;4.90;99.90;;;;;;5029683;28;20182;-82
2021/01/28 07:56:36;;;;;;;0.20;0.20;;;4.70;99.90;;;;;;5028422;28;20181;-82
2021/01/28 07:59:23;;;;;;;0.93;0.40;;;4.80;99.90;;;;;;5037865;28;20206;-82
2021/01/28 08:01:57;;;;;;;0.40;0.40;;;4.80;99.90;;;;;;5041371;28;20585;-83
2021/01/28 08:04:41;;;;;;;0.10;0.10;;;4.70;99.90;;;;;;5033056;28;20183;-82
2021/01/28 08:07:09;;;;;;;0.10;0.10;;;4.70;99.90;;;;;;5045227;28;20180;-83
2021/01/28 08:09:46;;;;;;;0.43;0.33;;;4.90;99.90;;;;;;5039354;28;20208;-83
2021/01/28 08:12:12;;;;;;;0.33;0.30;;;4.90;99.90;;;;;;5030103;28;20277;-82
2021/01/28 08:14:42;;;;;;;0.10;0.10;;;4.90;99.90;;;;;;5026543;28;20221;-81
2021/01/28 08:17:16;;;;;;;0.30;0.30;;;5.00;99.90;;;;;;5030583;28;20693;-82
2021/01/28 08:19:42;;;;;;;0.10;0.10;;;5.00;99.90;;;;;;5019822;28;20264;-79
2021/01/28 08:22:14;;;;;;;0.23;0.23;;;5.00;99.90;;;;;;5030771;28;20195;-85
2021/01/28 08:24:40;;;;;;;0.20;0.20;;;4.70;99.90;;;;;;5024739;28;20184;-82
2021/01/28 08:27:21;;;;;;;0.50;0.50;;;4.60;99.90;;;;;;5027542;28;20196;-84
2021/01/28 08:30:09;;;;;;;0.10;0.10;;;4.70;99.90;;;;;;5042128;28;20223;-84
2021/01/28 08:32:35;;;;;;;0.30;0.30;;;4.50;99.90;;;;;;5040535;28;20189;-83
2021/01/28 08:35:10;;;;;;;0.20;0.20;;;4.60;99.90;;;;;;5032048;28;20597;-83
2021/01/28 08:37:36;;;;;;;0.10;0.10;;;4.70;99.90;;;;;;5049934;28;20247;-84
2021/01/28 08:40:04;;;;;;;0.10;0.10;;;4.70;99.90;;;;;;5046957;28;20692;-84
2021/01/28 08:42:30;;;;;;;0.13;0.13;;;4.80;99.90;;;;;;5027351;28;20203;-82
2021/01/28 08:45:18;;;;;;;0.30;0.30;;;4.90;99.90;;;;;;5031652;28;20635;-82
2021/01/28 08:47:55;;;;;;;0.77;0.23;;;5.00;99.90;;;;;;5037549;28;20229;-84
2021/01/28 08:50:24;;;;;;;0.20;0.20;;;5.00;99.90;;;;;;5035804;28;20216;-83
2021/01/28 08:52:53;;;;;;;0.10;0.10;;;4.90;99.90;;;;;;5037804;28;20699;-84
2021/01/28 08:55:34;;;;;;;0.20;0.20;;;5.00;99.90;;;;;;5035303;28;20179;-84
2021/01/28 08:58:07;;;;;;;0.40;0.40;;;5.10;99.90;;;;;;5034774;28;20243;-83
2021/01/28 09:00:39;;;;;;;1.27;1.27;;;5.10;99.90;;;;;;5032748;28;20195;-83
2021/01/28 09:03:05;;;;;;;0.07;0.07;;;5.20;99.90;;;;;;5028726;28;20171;-81
2021/01/28 09:05:32;;;;;;;0.00;0.00;;;5.30;99.90;;;;;;5027580;28;20188;-82
2021/01/28 09:08:04;;;;;;;0.30;0.30;;;5.40;99.90;;;;;;5046640;28;20199;-83
2021/01/28 09:10:37;;;;;;;0.37;0.20;;;5.50;99.90;;;;;;5023688;28;20207;-81
2021/01/28 09:13:22;;;;;;;0.10;0.10;;;5.60;99.90;;;;;;5037168;28;20200;-81
2021/01/28 09:15:49;;;;;;;0.10;0.10;;;5.60;99.90;;;;;;5031988;28;20198;-83
2021/01/28 09:18:43;;;;;;;0.23;0.23;;;5.70;99.90;;;;;;5028657;28;20207;-84
2021/01/28 09:21:20;;;;;;;0.10;0.10;;;5.60;99.90;;;;;;5031656;28;20218;-84
2021/01/28 09:24:16;;;;;;;1.13;0.40;;;5.50;99.90;;;;;;5025693;28;20666;-84
2021/01/28 09:26:43;;;;;;;0.03;0.03;;;5.60;99.90;;;;;;5055753;28;20192;-84
2021/01/28 09:29:18;;;;;;;0.30;0.20;;;5.50;99.90;;;;;;5029485;28;20690;-83
2021/01/28 09:31:45;;;;;;;0.20;0.20;;;5.40;99.90;;;;;;5032752;28;20221;-84
2021/01/28 09:34:27;;;;;;;0.20;0.20;;;5.40;99.90;;;;;;5033283;28;20265;-83
2021/01/28 09:37:02;;;;;;;0.23;0.23;;;5.30;99.90;;;;;;5037901;28;20207;-84
2021/01/28 09:39:41;;;;;;;0.10;0.10;;;5.10;99.90;;;;;;5036646;28;20198;-83
2021/01/28 09:42:25;;;;;;;0.10;0.10;;;5.20;99.90;;;;;;5039181;28;20195;-82
2021/01/28 09:44:55;;;;;;;0.13;0.13;;;5.20;99.90;;;;;;5034813;28;20180;-84
2021/01/28 09:47:25;;;;;;;0.00;0.00;;;5.10;99.90;;;;;;5044668;28;20606;-84
2021/01/28 09:49:56;;;;;;;0.83;0.30;;;4.80;99.90;;;;;;5030497;28;20218;-84
2021/01/28 09:52:33;;;;;;;0.20;0.20;;;5.00;99.90;;;;;;5033460;28;20231;-85
2021/01/28 09:55:02;;;;;;;0.43;0.27;;;5.00;99.90;;;;;;5027168;28;20189;-79
2021/01/28 09:57:28;;;;;;;0.20;0.20;;;5.10;99.90;;;;;;5021513;28;20217;-81
2021/01/28 09:59:57;;;;;;;0.10;0.10;;;5.10;99.90;;;;;;5029160;28;20682;-82
2021/01/28 10:02:36;;;;;;;0.20;0.20;;;5.20;99.90;;;;;;5027067;28;20858;-81
2021/01/28 10:05:03;;;;;;;0.10;0.10;;;5.40;99.90;;;;;;5031765;28;20179;-79
2021/01/28 10:07:28;;;;;;;0.10;0.10;;;5.50;99.90;;;;;;5028037;28;20667;-82
2021/01/28 10:09:54;;;;;;;0.30;0.30;;;5.20;99.90;;;;;;5044418;28;20227;-80
2021/01/28 10:12:20;;;;;;;0.10;0.10;;;5.40;99.90;;;;;;5037402;28;20335;-80
2021/01/28 10:14:46;;;;;;;0.30;0.30;;;5.50;99.90;;;;;;5031888;28;20416;-81
2021/01/28 10:17:13;;;;;;;0.43;0.43;;;5.30;99.90;;;;;;5038037;28;20206;-80
2021/01/28 10:19:42;;;;;;;0.77;0.73;;;5.30;99.90;;;;;;5032374;28;20191;-81
2021/01/28 10:22:10;;;;;;;0.10;0.10;;;5.60;99.90;;;;;;5034379;28;20181;-79
2021/01/28 10:24:35;;;;;;;0.10;0.10;;;5.70;99.90;;;;;;5034543;28;20415;-79
2021/01/28 10:27:01;;;;;;;0.27;0.27;;;5.90;99.90;;;;;;5033162;28;20758;-81
2021/01/28 10:29:27;;;;;;;0.20;0.20;;;5.80;99.90;;;;;;5031021;28;21676;-80
2021/01/28 10:31:52;;;;;;;0.10;0.10;;;5.70;99.90;;;;;;5025504;28;20186;-81
2021/01/28 10:34:18;;;;;;;0.30;0.30;;;5.60;99.90;;;;;;5022379;28;20194;-80
2021/01/28 10:36:43;;;;;;;0.10;0.10;;;5.30;99.90;;;;;;5041124;28;20198;-80
2021/01/28 10:39:09;;;;;;;0.30;0.30;;;5.30;99.90;;;;;;5033960;28;20266;-80
2021/01/28 10:41:34;;;;;;;0.43;0.30;;;5.30;99.90;;;;;;5028511;28;20185;-79
2021/01/28 10:44:00;;;;;;;0.10;0.10;;;5.20;99.90;;;;;;5031712;28;20769;-82
2021/01/28 10:46:26;;;;;;;0.20;0.20;;;5.10;99.90;;;;;;5028487;28;20183;-81
2021/01/28 10:48:51;;;;;;;0.23;0.23;;;5.10;99.90;;;;;;5030324;28;20194;-79
2021/01/28 10:51:17;;;;;;;0.30;0.30;;;5.20;99.90;;;;;;5023633;28;20200;-82
2021/01/28 10:53:43;;;;;;;0.10;0.10;;;5.20;99.90;;;;;;5024334;28;20193;-80
2021/01/28 10:56:08;;;;;;;1.17;1.17;;;5.30;99.90;;;;;;5043208;28;20190;-79
2021/01/28 10:58:34;;;;;;;0.20;0.20;;;5.50;99.90;;;;;;5037863;28;20307;-80
2021/01/28 11:01:00;;;;;;;0.00;0.00;;;5.60;99.90;;;;;;5038682;28;20254;-81
2021/01/28 11:03:26;;;;;;;0.27;0.27;;;5.80;99.90;;;;;;5024037;28;20832;-80
2021/01/28 11:05:51;;;;;;;0.23;0.23;;;5.70;99.90;;;;;;5033250;28;20651;-80
2021/01/28 11:08:17;;;;;;;0.10;0.10;;;5.70;99.90;;;;;;5027344;28;20277;-81
2021/01/28 11:10:44;;;;;;;0.27;0.27;;;5.50;99.90;;;;;;5029883;28;20218;-81
2021/01/28 11:13:09;;;;;;;0.10;0.10;;;5.40;99.90;;;;;;5029886;28;20183;-81
2021/01/28 11:15:38;;;;;;;0.10;0.10;;;5.50;99.90;;;;;;5037021;28;20260;-81
2021/01/28 11:18:05;;;;;;;0.10;0.10;;;5.60;99.90;;;;;;5029676;28;20198;-80
2021/01/28 11:20:31;;;;;;;0.73;0.73;;;5.90;99.90;;;;;;5033321;28;20210;-80
2021/01/28 11:22:59;;;;;;;0.40;0.40;;;5.70;99.90;;;;;;5025805;28;20181;-80
2021/01/28 11:25:26;;;;;;;0.30;0.30;;;5.90;99.90;;;;;;5015408;28;20213;-81
2021/01/28 11:27:51;;;;;;;0.10;0.10;;;5.90;99.90;;;;;;5028017;28;20281;-81
2021/01/28 11:30:19;;;;;;;1.37;1.27;;;6.00;99.90;;;;;;5027281;28;20251;-81
2021/01/28 11:32:45;;;;;;;0.17;0.17;;;6.10;99.90;;;;;;5029189;28;20194;-81
2021/01/28 11:35:11;;;;;;;0.33;0.33;;;5.90;99.90;;;;;;5032516;28;20190;-81
2021/01/28 11:37:37;;;;;;;0.47;0.47;;;5.70;99.90;;;;;;5035002;28;20205;-84
2021/01/28 11:40:06;;;;;;;0.10;0.10;;;5.90;99.90;;;;;;5026977;28;20216;-82
2021/01/28 11:42:31;;;;;;;0.37;0.20;;;6.00;99.90;;;;;;5035206;28;20196;-85
2021/01/28 11:44:57;;;;;;;0.13;0.13;;;5.80;99.90;;;;;;5027337;28;20273;-80
2021/01/28 11:47:24;;;;;;;0.13;0.13;;;5.70;99.90;;;;;;5036702;28;20194;-80
2021/01/28 11:49:50;;;;;;;0.10;0.10;;;5.60;99.90;;;;;;5032768;28;20206;-81
2021/01/28 11:52:16;;;;;;;0.20;0.20;;;5.90;99.90;;;;;;5030929;28;20334;-81
2021/01/28 11:54:41;;;;;;;0.20;0.20;;;6.20;99.90;;;;;;5035648;28;20247;-80
2021/01/28 11:57:07;;;;;;;1.03;0.40;;;6.30;99.90;;;;;;5035835;28;20286;-81
2021/01/28 11:59:32;;;;;;;0.43;0.30;;;6.10;99.90;;;;;;5051080;28;20228;-82
2021/01/28 12:01:58;;;;;;;0.20;0.20;;;6.30;99.90;;;;;;5051551;28;20217;-83
2021/01/28 12:04:23;;;;;;;0.73;0.37;;;6.50;99.90;;;;;;5036765;28;20276;-82
2021/01/28 12:06:49;;;;;;;0.53;0.43;;;6.60;99.90;;;;;;5034863;28;20209;-80
2021/01/28 12:09:15;;;;;;;0.23;0.20;;;6.60;99.90;;;;;;5033963;28;20216;-82
2021/01/28 12:11:40;;;;;;;1.47;0.43;;;6.80;99.90;;;;;;5030722;28;20196;-82
2021/01/28 12:14:06;;;;;;;0.27;0.27;;;7.00;99.90;;;;;;5019393;28;20210;-81
2021/01/28 12:16:31;;;;;;;0.10;0.10;;;7.10;99.90;;;;;;5030163;28;20228;-82
2021/01/28 12:18:57;;;;;;;0.10;0.10;;;7.10;99.90;;;;;;5047502;28;20181;-81
2021/01/28 12:21:23;;;;;;;0.10;0.10;;;7.20;99.90;;;;;;5048774;28;20193;-82
2021/01/28 12:23:50;;;;;;;0.10;0.10;;;7.20;99.90;;;;;;5033735;28;20217;-81
2021/01/28 12:26:16;;;;;;;0.10;0.10;;;7.30;99.90;;;;;;5030628;28;20708;-82
2021/01/28 12:28:41;;;;;;;0.10;0.10;;;7.40;99.90;;;;;;5030923;28;20186;-78
2021/01/28 12:31:07;;;;;;;0.10;0.10;;;7.40;99.90;;;;;;5028198;28;20322;-79
2021/01/28 12:33:34;;;;;;;0.10;0.10;;;7.50;99.90;;;;;;5032241;28;20200;-79
2021/01/28 12:35:59;;;;;;;0.17;0.17;;;7.60;99.90;;;;;;5032093;28;20777;-77
2021/01/28 12:38:25;;;;;;;0.13;0.13;;;7.60;99.90;;;;;;5045737;28;20238;-79
2021/01/28 12:40:50;;;;;;;0.13;0.13;;;7.70;99.90;;;;;;5033250;28;20225;-80
2021/01/28 12:43:16;;;;;;;0.07;0.07;;;7.90;99.90;;;;;;5030578;28;20209;-79
2021/01/28 12:45:42;;;;;;;0.30;0.20;;;7.90;99.90;;;;;;5019187;28;20180;-80
2021/01/28 12:48:07;;;;;;;0.10;0.10;;;7.90;99.90;;;;;;5024344;28;20274;-81
2021/01/28 12:50:33;;;;;;;0.10;0.10;;;8.00;99.90;;;;;;5031074;28;20206;-80
2021/01/28 12:52:59;;;;;;;0.13;0.13;;;8.00;99.90;;;;;;5028667;28;20190;-81
2021/01/28 12:55:25;;;;;;;0.00;0.00;;;8.00;99.90;;;;;;5025733;28;20188;-81
2021/01/28 12:57:51;;;;;;;0.13;0.13;;;7.90;99.90;;;;;;5033515;28;20210;-81
2021/01/28 13:00:18;;;;;;;0.10;0.10;;;8.00;99.90;;;;;;5040133;28;20692;-82
2021/01/28 13:02:44;;;;;;;0.00;0.00;;;7.90;99.90;;;;;;5038550;28;20182;-81
2021/01/28 13:05:10;;;;;;;0.10;0.10;;;7.80;99.90;;;;;;5034888;28;20206;-79
2021/01/28 13:07:36;;;;;;;0.10;0.10;;;7.70;99.90;;;;;;5031831;28;20273;-82
2021/01/28 13:10:04;;;;;;;0.10;0.10;;;7.70;99.90;;;;;;5035255;28;20668;-82
2021/01/28 13:12:30;;;;;;;0.10;0.10;;;7.50;99.90;;;;;;5024547;28;20212;-81
2021/01/28 13:14:55;;;;;;;0.03;0.03;;;7.50;99.90;;;;;;5036119;28;20204;-81